CG Adelie — NTRK — position and weather

sailwx.info

Track history (hours):
 
Tides and Currents Weather Stations Pressure Air Temp Water Temp Dewpoint Dewpoint Depression Visibility Wind Speed Wind Dir Waves Ship Positions

CG Adelie

Last reported at 2018-Feb-16 10:01 UTC. Time now 2018-Feb-19 20:26 UTC.
Position N 48°20' W 122°59'.

Length 26 m; draft 1.7 m.

Type: Law enforcement. MMSI: 366999652.

Date/timePositionNaut miles runAvg speedWind from/ knotsBaromVisibWave heightAir tempDewpointWater temp
2018-Feb-16 10:01N 48°20' W 122°59'0 3.9
2018-Feb-16 09:54N 48°21' W 122°58'1 3.5
2018-Feb-16 09:30N 48°22' W 122°58'1 2.8
2018-Feb-16 09:00N 48°23' W 122°58'2 3.4
2018-Feb-16 08:30N 48°25' W 122°57'  
2018-Feb-12 07:43N 47°58' W 122°34'1 3.0
2018-Feb-12 07:30N 47°58' W 122°33'2 3.1
2018-Feb-12 07:00N 47°57' W 122°31'2 4.7
2018-Feb-12 06:30N 47°55' W 122°29'2 4.5
2018-Feb-12 06:00N 47°53' W 122°28'2 4.8
2018-Feb-12 05:30N 47°51' W 122°27'2 4.2
2018-Feb-12 05:00N 47°49' W 122°26'2 4.3
2018-Feb-12 04:30N 47°47' W 122°26'2 4.7
2018-Feb-12 04:00N 47°44' W 122°26'  
Track history (hours):
 
Tides and Currents Weather Stations Pressure Air Temp Water Temp Dewpoint Dewpoint Depression Visibility Wind Speed Wind Dir Waves Ship Positions

CG Adelie

Last reported at 2018-Feb-16 10:01 UTC. Time now 2018-Feb-19 20:26 UTC.
Position N 48°20' W 122°59'.

Length 26 m; draft 1.7 m.

Type: Law enforcement. MMSI: 366999652.

Date/timePositionNaut miles runAvg speedWind from/ knotsBaromVisibWave heightAir tempDewpointWater temp
2018-Feb-16 10:01N 48°20' W 122°59'0 3.9
2018-Feb-16 09:54N 48°21' W 122°58'1 3.5
2018-Feb-16 09:30N 48°22' W 122°58'1 2.8
2018-Feb-16 09:00N 48°23' W 122°58'2 3.4
2018-Feb-16 08:30N 48°25' W 122°57'  
2018-Feb-12 07:43N 47°58' W 122°34'1 3.0
2018-Feb-12 07:30N 47°58' W 122°33'2 3.1
2018-Feb-12 07:00N 47°57' W 122°31'2 4.7
2018-Feb-12 06:30N 47°55' W 122°29'2 4.5
2018-Feb-12 06:00N 47°53' W 122°28'2 4.8
2018-Feb-12 05:30N 47°51' W 122°27'2 4.2
2018-Feb-12 05:00N 47°49' W 122°26'2 4.3
2018-Feb-12 04:30N 47°47' W 122°26'2 4.7
2018-Feb-12 04:00N 47°44' W 122°26'  

Dump ship's entire track history